General Aviation Weather

Text Reports

Enter one or more of the following location identifiers separated by a space:

Zip Code, Four-Character ICAO or Three-Character IATA airport codes.

METAR - Aviation Routine Weather Report
KDFI - Defiance, Ohio
Updated at 3:53 PM GMT on November 24, 2014 (10:53 AM EST):
METAR KDFI 241553Z AUTO 22020G30KT 10SM SCT024 OVC036 14/10 A2918 RMK AO2 PK WND 20032/1535 RAE1456 SLP880 P0000 T01440100
TAF - Terminal Area Forecast
KDFI - Defiance, Ohio
Updated at 3:53 PM GMT on November 24, 2014 (10:53 AM EST):
No TAF is currently available for this location.
Decoded:
No decoded TAF is available.
PIREP - Pilot Weather Report
KDFI - Defiance, Ohio
Updated at 3:53 PM GMT on November 24, 2014 (10:53 AM EST):
No PIREP is currently available for this location.
AIRMET - Airmens Meteorological Information
KDFI - Defiance, Ohio
Updated at 3:53 PM GMT on November 24, 2014 (10:53 AM EST):
No AIRMET is currently available for this location.
SIGMET - Significant Meteorological Information
KDFI - Defiance, Ohio
Updated at 3:53 PM GMT on November 24, 2014 (10:53 AM EST):
No SIGMET is currently available for this location.
NOTAM - Notice to Airmen
KDFI - Defiance, Ohio
Updated at 3:53 PM GMT on November 24, 2014 (10:53 AM EST):
No NOTAM is currently available for this location.
Forecast Area
KDFI - Defiance, Ohio
Updated at 3:53 PM GMT on November 24, 2014 (10:53 AM EST):
No NOTAM is currently available for this location.
Aviation Weather Maps